Time;durP1;ratioP1;P1;durP2;ratioP2;P2;SDS_P1;SDS_P2;PMS_P1;PMS_P2;Temp;Humidity;BMP_temperature;BMP_pressure;BME280_temperature;BME280_humidity;BME280_pressure;Samples;Min_cycle;Max_cycle;Signal;HPM_P1;HPM_P2
2021/04/10 00:01:20;;;;;;;8.65;3.75;;;10.10;41.90;;;8.40;42.23;95797.69;4967093;28;20407;-68
2021/04/10 00:03:46;;;;;;;6.68;3.75;;;10.10;41.70;;;8.36;41.85;95791.16;4982887;28;20046;-68
2021/04/10 00:06:12;;;;;;;7.30;3.75;;;10.00;42.00;;;8.37;42.25;95790.19;4986135;28;20054;-68
2021/04/10 00:08:38;;;;;;;11.38;4.03;;;10.00;42.00;;;8.30;41.86;95781.41;4969004;28;20034;-68
2021/04/10 00:11:04;;;;;;;6.20;3.42;;;10.00;41.30;;;8.30;41.80;95784.00;4952035;28;20411;-69
2021/04/10 00:13:29;;;;;;;15.80;9.07;;;9.90;42.00;;;8.30;41.76;95781.41;4937191;28;20062;-69
2021/04/10 00:15:55;;;;;;;9.18;6.00;;;9.90;41.60;;;8.29;41.79;95785.00;4936413;28;20121;-69
2021/04/10 00:18:21;;;;;;;13.32;7.60;;;9.80;40.80;;;8.23;41.95;95780.50;4968677;28;20034;-68
2021/04/10 00:20:46;;;;;;;15.88;7.90;;;9.80;40.60;;;8.25;41.63;95783.75;4968976;28;20050;-68
2021/04/10 00:23:12;;;;;;;10.63;5.78;;;9.80;40.60;;;8.24;41.77;95776.88;4951557;28;20082;-69
2021/04/10 00:25:38;;;;;;;7.47;4.10;;;9.80;41.10;;;8.17;42.09;95774.19;4963904;28;20455;-69
2021/04/10 00:28:04;;;;;;;8.27;3.47;;;9.80;41.10;;;8.15;41.58;95772.75;4975287;28;20039;-69
2021/04/10 00:30:30;;;;;;;7.07;3.33;;;9.80;41.20;;;8.11;41.81;95768.84;4968605;28;20054;-69
2021/04/10 00:32:56;;;;;;;8.18;3.80;;;9.80;40.90;;;8.12;41.50;95765.22;4969557;28;20038;-70
2021/04/10 00:35:21;;;;;;;6.95;3.55;;;9.70;40.80;;;8.11;41.77;95771.47;4969699;28;20494;-69
2021/04/10 00:37:47;;;;;;;7.13;3.70;;;9.70;41.30;;;8.06;42.21;95761.53;4949090;28;20069;-69
2021/04/10 00:40:13;;;;;;;13.52;4.00;;;9.80;41.40;;;8.06;42.20;95768.59;4961563;28;20058;-69
2021/04/10 00:42:39;;;;;;;6.60;3.60;;;9.70;41.20;;;8.06;42.26;95763.34;4970019;28;20037;-68
2021/04/10 00:45:07;;;;;;;9.00;3.70;;;9.70;41.60;;;7.96;42.67;95759.22;4954243;28;20038;-70
2021/04/10 00:47:33;;;;;;;7.65;3.45;;;9.70;41.70;;;7.96;42.21;95751.34;4985968;28;20529;-68
2021/04/10 00:49:59;;;;;;;7.80;3.35;;;9.60;41.40;;;7.97;42.14;95762.63;4964115;28;20030;-69
2021/04/10 00:52:24;;;;;;;7.85;3.40;;;9.60;41.50;;;7.95;42.77;95760.19;4936475;28;20090;-69
2021/04/10 00:54:51;;;;;;;8.98;3.10;;;9.60;42.10;;;7.94;42.58;95761.19;4969594;28;20129;-69
2021/04/10 00:57:20;;;;;;;6.97;2.95;;;9.60;42.80;;;7.89;42.95;95755.66;4950838;28;20438;-68
2021/04/10 00:59:46;;;;;;;8.27;3.08;;;9.60;42.70;;;7.84;43.00;95752.78;4969455;28;20114;-70
2021/04/10 01:02:12;;;;;;;6.45;2.92;;;9.50;42.30;;;7.80;43.00;95746.28;4948540;28;20307;-69
2021/04/10 01:04:39;;;;;;;6.88;2.83;;;9.40;41.70;;;7.76;42.31;95752.88;4965260;28;20035;-68
2021/04/10 01:07:05;;;;;;;5.05;2.97;;;9.40;42.30;;;7.73;42.60;95753.25;4975216;28;20055;-69
2021/04/10 01:09:31;;;;;;;5.55;2.78;;;9.30;41.70;;;7.71;42.33;95760.47;4985089;28;20038;-69
2021/04/10 01:12:48;;;;;;;6.70;2.80;;;9.20;41.40;;;7.61;43.63;95759.91;4963925;28;20035;-69
2021/04/10 01:15:32;;;;;;;5.22;2.72;;;9.10;41.30;;;7.59;42.85;95761.88;4952134;28;20514;-69
2021/04/10 01:18:09;;;;;;;7.40;2.92;;;9.00;41.50;;;7.49;43.12;95743.00;4986080;28;20093;-68
2021/04/10 01:21:54;;;;;;;6.97;2.50;;;8.90;41.80;;;7.45;43.99;95760.03;4970657;28;20031;-68
2021/04/10 01:24:41;;;;;;;5.43;2.78;;;8.90;42.00;;;7.37;43.16;95753.91;4921685;29;20148;-68
2021/04/10 01:27:45;;;;;;;6.88;2.85;;;8.70;42.10;;;7.30;43.72;95753.00;4972858;28;20062;-68
2021/04/10 01:30:15;;;;;;;6.22;2.67;;;8.70;42.50;;;7.25;43.30;95749.28;4963094;28;20047;-69
2021/04/10 01:33:10;;;;;;;3.80;2.15;;;8.70;42.60;;;7.21;43.36;95761.88;4947438;28;20150;-69
2021/04/10 01:35:50;;;;;;;4.63;2.42;;;8.60;42.50;;;7.15;43.61;95762.59;4952452;28;20034;-68
2021/04/10 01:38:18;;;;;;;4.50;2.58;;;8.50;42.70;;;7.05;42.48;95764.66;4951524;28;20409;-69
2021/04/10 01:40:44;;;;;;;7.93;2.60;;;8.50;43.10;;;7.00;43.25;95764.31;4950326;28;20039;-69
2021/04/10 01:43:11;;;;;;;5.70;2.58;;;8.40;43.10;;;7.02;42.59;95765.00;4934154;28;20097;-69
2021/04/10 01:45:37;;;;;;;4.60;2.35;;;8.40;43.20;;;7.00;43.39;95767.75;4948901;28;20545;-69
2021/04/10 01:48:05;;;;;;;5.63;2.30;;;8.50;43.20;;;6.97;42.96;95769.91;4961597;28;20129;-69
2021/04/10 01:50:31;;;;;;;4.18;2.25;;;8.40;43.30;;;6.95;43.13;95780.56;4954384;28;20612;-69
2021/04/10 01:52:57;;;;;;;10.25;2.55;;;8.30;43.30;;;6.92;42.93;95772.25;4948799;28;20340;-69
2021/04/10 01:55:23;;;;;;;5.57;2.63;;;8.30;43.30;;;6.88;43.20;95771.78;4948316;28;20182;-69
2021/04/10 01:57:49;;;;;;;5.05;2.53;;;8.30;43.50;;;6.86;42.96;95768.53;4965978;28;20653;-69
2021/04/10 02:00:16;;;;;;;4.32;2.40;;;8.40;43.50;;;6.89;43.80;95767.38;4967571;28;20085;-69
2021/04/10 02:02:42;;;;;;;4.05;2.10;;;8.40;43.60;;;6.89;44.02;95765.56;4950681;28;20046;-71
2021/04/10 02:05:12;;;;;;;6.18;2.42;;;8.40;43.60;;;6.91;44.07;95774.03;4950053;28;20709;-69
2021/04/10 02:07:40;;;;;;;4.85;2.40;;;8.40;43.70;;;6.91;44.59;95765.38;4950397;28;20030;-69
2021/04/10 02:10:07;;;;;;;8.77;2.28;;;8.40;43.80;;;6.90;43.43;95763.75;4980647;28;20523;-68
2021/04/10 02:12:33;;;;;;;4.57;2.47;;;8.40;43.90;;;6.91;43.85;95762.78;4958672;28;20558;-69
2021/04/10 02:14:59;;;;;;;5.07;2.40;;;8.40;43.90;;;6.88;43.87;95760.50;4966500;28;20031;-70
2021/04/10 02:17:25;;;;;;;5.35;2.58;;;8.50;44.10;;;6.90;44.50;95767.19;4972855;28;20031;-69
2021/04/10 02:19:51;;;;;;;4.50;2.20;;;8.40;44.00;;;6.92;44.44;95759.16;4972514;28;20570;-69
2021/04/10 02:22:17;;;;;;;5.70;2.67;;;8.50;44.10;;;6.92;44.62;95764.41;4973433;28;20073;-69
2021/04/10 02:24:43;;;;;;;5.93;2.50;;;8.50;44.10;;;6.95;44.55;95761.44;4956911;28;20507;-69
2021/04/10 02:27:09;;;;;;;5.03;2.88;;;8.50;44.20;;;6.97;44.32;95767.28;4972243;28;20517;-70
2021/04/10 02:29:35;;;;;;;6.75;2.80;;;8.60;43.70;;;6.98;44.41;95769.75;4969250;28;20043;-70
2021/04/10 02:32:08;;;;;;;5.43;2.60;;;8.60;43.80;;;6.99;45.40;95770.56;4945671;28;20055;-70
2021/04/10 02:34:44;;;;;;;6.82;2.47;;;8.50;43.80;;;6.93;45.43;95763.41;4970346;28;20038;-69
2021/04/10 02:37:09;;;;;;;5.72;2.70;;;8.50;43.80;;;6.92;44.41;95764.41;4955897;28;20054;-69
2021/04/10 02:39:35;;;;;;;5.07;2.42;;;8.50;43.80;;;6.95;43.91;95772.69;4956650;28;20511;-69
2021/04/10 02:42:02;;;;;;;6.75;2.53;;;8.50;43.90;;;6.98;44.38;95763.69;4952613;28;20751;-69
2021/04/10 02:44:39;;;;;;;7.25;2.50;;;8.60;44.20;;;7.02;45.75;95773.66;4956594;28;20066;-70
2021/04/10 02:47:07;;;;;;;6.35;2.75;;;8.70;44.50;;;7.03;45.24;95766.63;4955476;28;20050;-69
2021/04/10 02:49:35;;;;;;;4.60;2.38;;;8.70;44.30;;;7.07;44.72;95762.66;4972479;28;20459;-69
2021/04/10 02:52:01;;;;;;;5.47;2.22;;;8.80;44.20;;;7.08;45.01;95766.91;4956090;28;20037;-68
2021/04/10 02:54:29;;;;;;;6.90;2.70;;;8.80;44.10;;;7.06;45.15;95755.81;4972586;28;20039;-71
2021/04/10 02:57:07;;;;;;;3.92;2.30;;;8.70;44.10;;;7.07;45.74;95754.81;4939978;28;20039;-69
2021/04/10 02:59:33;;;;;;;7.50;2.47;;;8.60;44.40;;;7.05;44.43;95759.41;4937777;28;20058;-69
2021/04/10 03:01:59;;;;;;;6.13;2.33;;;8.70;44.50;;;7.06;44.99;95761.03;4951317;28;20039;-69
2021/04/10 03:04:25;;;;;;;5.65;2.28;;;8.60;44.70;;;7.03;45.43;95756.97;4972686;28;20090;-69
2021/04/10 03:06:51;;;;;;;5.35;2.47;;;8.60;44.70;;;7.05;45.30;95759.41;4950523;28;20410;-69
2021/04/10 03:09:17;;;;;;;6.13;2.35;;;8.60;44.80;;;7.08;44.91;95751.22;4972029;28;20116;-69
2021/04/10 03:11:43;;;;;;;6.30;2.00;;;8.70;45.00;;;7.06;46.03;95745.34;4972471;28;20035;-70
2021/04/10 03:14:09;;;;;;;8.43;2.65;;;8.60;44.90;;;7.06;44.81;95755.81;4940837;28;20584;-69
2021/04/10 03:16:35;;;;;;;7.03;2.40;;;8.70;44.90;;;7.04;45.63;95747.31;4971989;28;20042;-70
2021/04/10 03:19:02;;;;;;;5.63;2.45;;;8.70;45.30;;;7.07;45.48;95750.41;4939509;28;20495;-70
2021/04/10 03:21:27;;;;;;;4.80;2.22;;;8.70;45.40;;;7.13;45.93;95750.69;4956253;28;20133;-70
2021/04/10 03:23:54;;;;;;;4.60;2.28;;;8.80;45.30;;;7.12;45.52;95755.09;4972222;28;20113;-69
2021/04/10 03:26:20;;;;;;;5.55;2.88;;;8.80;45.30;;;7.11;45.92;95753.47;4971709;28;20449;-69
2021/04/10 03:28:45;;;;;;;5.13;2.50;;;8.80;45.50;;;7.10;46.53;95751.03;4968386;28;20038;-70
2021/04/10 03:31:11;;;;;;;6.53;2.80;;;8.90;45.80;;;7.13;45.90;95754.09;4951992;28;20038;-70
2021/04/10 03:33:37;;;;;;;4.65;2.50;;;8.90;45.50;;;7.14;46.09;95762.75;4937550;28;20093;-68
2021/04/10 03:36:04;;;;;;;6.70;2.63;;;8.80;45.10;;;7.15;45.85;95765.19;4950576;28;20070;-70
2021/04/10 03:38:31;;;;;;;6.07;2.60;;;8.90;45.40;;;7.15;45.80;95761.78;4947997;28;20106;-71
2021/04/10 03:40:58;;;;;;;5.82;2.85;;;8.80;45.00;;;7.12;46.49;95762.94;4926472;28;20726;-68
2021/04/10 03:43:23;;;;;;;7.93;2.88;;;8.80;45.20;;;7.10;46.35;95762.31;4925268;28;20039;-68
2021/04/10 03:45:49;;;;;;;6.20;2.85;;;8.80;45.20;;;7.07;46.33;95773.13;4919900;28;20039;-68
2021/04/10 03:48:15;;;;;;;5.03;3.03;;;8.70;45.40;;;7.05;46.07;95769.88;4951256;28;20066;-67
2021/04/10 03:50:40;;;;;;;4.93;2.30;;;8.70;45.80;;;7.02;46.48;95765.00;4950474;28;20110;-65
2021/04/10 03:53:06;;;;;;;9.80;3.42;;;8.70;46.00;;;7.03;45.98;95769.25;4952083;28;20051;-65
2021/04/10 03:55:32;;;;;;;6.43;2.60;;;8.70;46.00;;;7.00;46.74;95766.94;4956170;28;20045;-66
2021/04/10 03:58:01;;;;;;;5.28;3.00;;;8.60;46.40;;;6.97;46.92;95773.34;4983475;28;20050;-65
2021/04/10 04:00:28;;;;;;;5.20;2.83;;;8.60;46.30;;;6.95;47.33;95774.50;4936459;28;20360;-66
2021/04/10 04:02:54;;;;;;;6.90;3.45;;;8.50;46.50;;;6.94;46.26;95775.50;4936343;28;20039;-64
2021/04/10 04:05:19;;;;;;;5.50;2.95;;;8.50;47.00;;;6.92;47.24;95780.09;4951929;28;20140;-64
2021/04/10 04:07:45;;;;;;;5.70;2.80;;;8.40;47.00;;;6.91;47.47;95783.69;4951412;28;20027;-65
2021/04/10 04:10:11;;;;;;;5.70;3.03;;;8.50;47.00;;;6.89;47.27;95783.88;4959117;28;20109;-66
2021/04/10 04:12:37;;;;;;;7.22;3.25;;;8.50;47.10;;;6.89;47.57;95785.66;4933624;28;20031;-66
2021/04/10 04:15:04;;;;;;;4.63;2.58;;;8.50;47.00;;;6.87;47.39;95785.84;4969094;28;20097;-65
2021/04/10 04:17:30;;;;;;;8.77;2.78;;;8.50;47.20;;;6.92;47.64;95790.53;4952285;28;20027;-66
2021/04/10 04:19:56;;;;;;;8.05;2.90;;;8.60;47.10;;;6.89;47.22;95775.22;4950067;28;20527;-65
2021/04/10 04:22:21;;;;;;;5.57;2.78;;;8.50;47.30;;;6.88;47.10;95778.81;4936291;28;20035;-65
2021/04/10 04:24:47;;;;;;;5.07;2.40;;;8.50;47.20;;;6.87;47.62;95771.97;4950185;28;20105;-66
2021/04/10 04:27:13;;;;;;;5.25;2.78;;;8.40;47.20;;;6.87;47.11;95777.19;4967326;28;20058;-65
2021/04/10 04:29:39;;;;;;;9.75;2.50;;;8.50;47.10;;;6.87;47.55;95777.19;4951681;28;20052;-65
2021/04/10 04:32:05;;;;;;;6.47;2.70;;;8.50;47.20;;;6.88;47.73;95781.44;4951728;28;20023;-65
2021/04/10 04:34:31;;;;;;;4.00;2.53;;;8.50;47.00;;;6.89;46.76;95783.06;4934626;28;20036;-68
2021/04/10 04:36:57;;;;;;;7.03;2.92;;;8.50;46.90;;;6.92;47.62;95790.53;4967503;28;20576;-69
2021/04/10 04:39:22;;;;;;;5.57;2.20;;;8.50;46.90;;;6.93;47.11;95790.38;4966279;28;20444;-70
2021/04/10 04:41:48;;;;;;;5.20;2.17;;;8.50;46.90;;;6.95;47.79;95787.59;4950327;28;20067;-66
2021/04/10 04:44:14;;;;;;;4.38;2.50;;;8.60;47.30;;;6.97;47.13;95791.66;4936703;28;20082;-66
2021/04/10 04:46:40;;;;;;;7.05;2.20;;;8.60;47.30;;;7.00;47.65;95800.94;4932749;29;20050;-66
2021/04/10 04:49:05;;;;;;;6.07;2.38;;;8.70;47.30;;;7.04;47.61;95799.63;4916318;28;20146;-66
2021/04/10 04:51:31;;;;;;;4.97;2.22;;;8.70;47.20;;;7.08;47.41;95806.13;4932794;29;20062;-66
2021/04/10 04:53:57;;;;;;;6.07;2.63;;;8.80;46.80;;;7.11;47.76;95800.56;4932995;28;20063;-66
2021/04/10 04:56:22;;;;;;;5.32;2.13;;;8.80;46.90;;;7.12;47.98;95802.19;4934679;28;20058;-66
2021/04/10 04:58:48;;;;;;;5.85;2.35;;;8.80;47.10;;;7.12;47.57;95817.06;4967645;28;20113;-66
2021/04/10 05:01:14;;;;;;;6.18;2.40;;;8.80;47.30;;;7.13;48.19;95813.44;4967314;28;20030;-67
2021/04/10 05:03:40;;;;;;;6.57;3.45;;;8.80;47.60;;;7.16;47.47;95813.91;4951745;28;20050;-67
2021/04/10 05:06:05;;;;;;;5.38;2.67;;;8.90;47.60;;;7.17;47.99;95815.53;4951642;28;20090;-67
2021/04/10 05:08:31;;;;;;;6.28;2.22;;;8.80;47.60;;;7.17;48.55;95806.88;4951339;28;20034;-67
2021/04/10 05:10:57;;;;;;;4.38;2.28;;;8.80;47.60;;;7.17;48.37;95806.88;4951475;28;20226;-66
2021/04/10 05:13:22;;;;;;;4.68;2.22;;;8.80;47.50;;;7.18;48.01;95813.72;4967466;28;20026;-67
2021/04/10 05:15:48;;;;;;;9.95;2.40;;;8.70;47.70;;;7.19;48.81;95807.50;4951525;28;20058;-67
2021/04/10 05:18:14;;;;;;;6.50;2.65;;;8.80;47.60;;;7.19;48.73;95813.56;4967444;28;20150;-67
2021/04/10 05:20:40;;;;;;;4.85;2.20;;;8.80;47.80;;;7.22;48.61;95818.44;4951763;28;20533;-67
2021/04/10 05:23:05;;;;;;;4.47;2.05;;;8.80;47.60;;;7.23;47.97;95820.06;4950021;28;20047;-67
2021/04/10 05:25:31;;;;;;;8.63;2.45;;;8.80;47.50;;;7.25;48.34;95825.97;4967280;28;20122;-67
2021/04/10 05:27:57;;;;;;;3.72;2.13;;;8.80;47.10;;;7.29;48.36;95829.84;4935136;28;20031;-67
2021/04/10 05:30:23;;;;;;;4.13;2.72;;;9.00;46.70;;;7.34;47.92;95822.28;4967237;28;20503;-66
2021/04/10 05:32:49;;;;;;;6.55;2.33;;;9.10;46.50;;;7.42;47.58;95826.63;4932191;28;20035;-67
2021/04/10 05:35:15;;;;;;;8.07;3.60;;;9.10;46.20;;;7.48;48.03;95828.56;4963653;28;20054;-67
2021/04/10 05:37:41;;;;;;;7.43;2.92;;;9.20;46.00;;;7.56;47.52;95825.06;4948284;28;20416;-67
2021/04/10 05:40:08;;;;;;;5.10;2.38;;;9.30;45.60;;;7.65;47.83;95823.97;4947858;28;20028;-67
2021/04/10 05:42:34;;;;;;;5.97;2.40;;;9.50;45.30;;;7.76;47.41;95826.19;4946816;28;20079;-67
2021/04/10 05:44:59;;;;;;;6.40;2.55;;;9.60;44.30;;;7.88;47.26;95835.22;4955966;28;20039;-67
2021/04/10 05:47:25;;;;;;;6.13;2.00;;;9.80;44.20;;;7.99;46.97;95831.38;4949957;28;20555;-67
2021/04/10 05:49:51;;;;;;;7.18;2.25;;;9.90;44.00;;;8.08;47.66;95824.22;4966486;28;20441;-67
2021/04/10 05:52:17;;;;;;;5.18;2.28;;;9.90;44.20;;;8.16;46.85;95826.78;4951122;28;20039;-67
2021/04/10 05:54:43;;;;;;;7.72;2.50;;;10.10;43.80;;;8.23;46.44;95822.44;4951134;28;20155;-67
2021/04/10 05:57:08;;;;;;;6.18;2.38;;;10.10;43.50;;;8.28;46.73;95825.31;4966468;28;20490;-67
2021/04/10 05:59:34;;;;;;;5.25;2.40;;;10.10;43.60;;;8.35;46.04;95815.75;4966663;28;20110;-67
2021/04/10 06:02:06;;;;;;;8.82;4.10;;;10.30;42.90;;;8.47;46.20;95818.75;4966673;28;20064;-67
2021/04/10 06:04:35;;;;;;;10.13;4.03;;;10.70;42.40;;;8.62;46.23;95822.16;4931943;29;20089;-67
2021/04/10 06:07:01;;;;;;;8.63;4.13;;;10.90;42.00;;;8.76;46.48;95823.13;4946733;28;20031;-67
2021/04/10 06:09:27;;;;;;;8.20;4.20;;;11.10;42.00;;;8.90;46.17;95824.91;4947305;28;20106;-66
2021/04/10 06:11:53;;;;;;;5.60;2.50;;;11.10;41.50;;;9.02;45.88;95825.22;4947495;28;20023;-66
2021/04/10 06:14:20;;;;;;;9.23;2.60;;;11.30;41.20;;;9.14;45.90;95821.94;4947904;28;20455;-67
2021/04/10 06:16:49;;;;;;;4.35;2.25;;;11.40;41.00;;;9.29;45.58;95826.31;4950344;28;20042;-67
2021/04/10 06:19:15;;;;;;;7.72;2.15;;;11.40;40.70;;;9.40;45.22;95826.63;4929676;28;20110;-68
2021/04/10 06:21:41;;;;;;;7.38;2.00;;;11.60;40.50;;;9.54;45.27;95832.81;4931725;28;20030;-68
2021/04/10 06:24:08;;;;;;;4.90;1.90;;;11.80;40.30;;;9.68;44.41;95833.72;4950421;28;20062;-68
2021/04/10 06:26:34;;;;;;;3.85;1.77;;;11.90;39.90;;;9.79;45.02;95835.84;4950356;28;20031;-69
2021/04/10 06:29:00;;;;;;;6.03;2.20;;;12.10;39.80;;;9.89;44.56;95833.69;4949848;28;20019;-68
2021/04/10 06:31:25;;;;;;;5.25;2.08;;;11.90;39.90;;;9.99;44.01;95846.50;4950057;28;20074;-69
2021/04/10 06:33:51;;;;;;;5.40;2.35;;;12.00;40.10;;;10.08;44.16;95845.34;4961053;28;20062;-70
2021/04/10 06:36:17;;;;;;;14.65;7.30;;;12.20;40.20;;;10.17;44.14;95854.69;4950959;28;20071;-69
2021/04/10 06:38:43;;;;;;;11.55;4.75;;;12.20;40.30;;;10.23;44.29;95851.34;4962000;28;20114;-71
2021/04/10 06:41:13;;;;;;;7.85;2.80;;;12.30;40.40;;;10.33;44.32;95851.00;4933382;28;20035;-71
2021/04/10 06:43:42;;;;;;;9.65;2.60;;;12.60;40.10;;;10.41;43.78;95849.03;4934442;28;20126;-71
2021/04/10 06:46:08;;;;;;;6.90;4.03;;;12.60;39.90;;;10.48;43.87;95846.44;4932423;28;20082;-70
2021/04/10 06:48:33;;;;;;;5.97;2.70;;;12.60;40.20;;;10.54;43.63;95847.47;4949436;28;20059;-68
2021/04/10 06:51:00;;;;;;;4.32;2.25;;;12.50;40.40;;;10.57;44.06;95844.44;4949392;28;20085;-68
2021/04/10 06:53:26;;;;;;;7.38;2.70;;;12.70;40.50;;;10.67;44.49;95852.81;4948615;28;20127;-68
2021/04/10 06:55:54;;;;;;;4.05;2.50;;;13.00;40.40;;;10.77;43.97;95845.34;4949775;28;20046;-71
2021/04/10 06:58:43;;;;;;;5.90;2.53;;;13.10;40.20;;;10.93;44.22;95849.47;4932314;28;20039;-70
2021/04/10 07:01:10;;;;;;;4.00;2.03;;;13.30;40.00;;;11.11;44.60;95846.31;4932682;28;20039;-68
2021/04/10 07:03:35;;;;;;;4.35;1.65;;;13.60;39.30;;;11.28;43.60;95844.91;4969110;28;20035;-69
2021/04/10 07:06:01;;;;;;;4.05;1.85;;;13.80;38.80;;;11.48;43.95;95837.84;4934065;28;20134;-73
2021/04/10 07:08:27;;;;;;;5.78;1.90;;;14.00;37.90;;;11.64;43.36;95845.38;4967829;28;20121;-74
2021/04/10 07:10:53;;;;;;;7.50;2.95;;;14.10;37.60;;;11.83;43.90;95840.34;4968930;28;20047;-70
2021/04/10 07:13:18;;;;;;;6.88;2.08;;;14.30;37.40;;;12.03;43.13;95843.00;4936874;28;20105;-70
2021/04/10 07:15:44;;;;;;;5.43;2.95;;;14.70;36.80;;;12.23;42.77;95843.78;4925044;28;20122;-71
2021/04/10 07:18:10;;;;;;;6.25;2.13;;;15.00;37.00;;;12.47;42.86;95852.88;4936825;28;20031;-70
2021/04/10 07:20:37;;;;;;;4.70;2.00;;;15.10;36.60;;;12.71;42.70;95852.19;4944567;28;20058;-71
2021/04/10 07:23:07;;;;;;;4.28;2.00;;;15.50;36.20;;;12.96;41.52;95846.22;4952448;28;20043;-67
2021/04/10 07:25:35;;;;;;;3.08;1.58;;;15.60;35.30;;;13.09;41.29;95856.69;4954291;28;20059;-73
2021/04/10 07:28:23;;;;;;;3.78;1.60;;;15.40;35.30;;;13.17;40.27;95851.19;4952442;28;20114;-68
2021/04/10 07:31:10;;;;;;;3.97;1.40;;;15.10;35.30;;;13.24;40.47;95854.63;4953418;28;20398;-68
2021/04/10 07:33:43;;;;;;;4.47;1.40;;;15.50;35.80;;;13.32;40.72;95857.00;4934123;29;20051;-68
2021/04/10 07:36:12;;;;;;;5.57;2.05;;;15.50;35.20;;;13.37;40.42;95853.75;4914883;28;20178;-72
2021/04/10 07:38:40;;;;;;;3.90;1.90;;;15.50;35.00;;;13.38;40.24;95861.47;4968857;28;20541;-68
2021/04/10 07:41:17;;;;;;;7.57;2.10;;;15.40;35.10;;;13.47;40.02;95867.31;4946975;28;20043;-68
2021/04/10 07:43:43;;;;;;;5.45;1.83;;;15.60;35.50;;;13.55;40.71;95869.69;4942290;28;20031;-68
2021/04/10 07:46:16;;;;;;;5.38;2.10;;;15.70;35.30;;;13.64;40.41;95865.78;4918130;29;20557;-68
2021/04/10 07:49:11;;;;;;;6.20;2.60;;;15.80;35.00;;;13.74;40.42;95860.81;4945118;28;20042;-70
2021/04/10 07:51:55;;;;;;;5.97;2.38;;;15.90;35.80;;;13.79;39.15;95862.81;4952752;28;20386;-69
2021/04/10 07:54:32;;;;;;;6.70;2.00;;;16.10;34.80;;;13.82;39.92;95862.41;4936384;28;20523;-69
2021/04/10 07:57:06;;;;;;;8.50;2.00;;;16.10;35.30;;;13.88;38.71;95861.53;4936309;28;20046;-70
2021/04/10 07:59:50;;;;;;;8.75;1.75;;;16.10;34.00;;;14.04;39.79;95860.22;4936168;28;20031;-69
2021/04/10 08:02:17;;;;;;;3.45;1.80;;;16.60;33.40;;;14.38;39.17;95866.81;4939188;28;20491;-68
2021/04/10 08:05:03;;;;;;;8.30;3.70;;;17.10;33.00;;;14.85;38.00;95864.53;4949608;28;20511;-68
2021/04/10 08:07:31;;;;;;;3.63;1.73;;;17.80;32.70;;;15.20;38.92;95860.22;4917691;28;20043;-68
2021/04/10 08:09:59;;;;;;;6.03;2.17;;;17.70;31.20;;;15.59;38.85;95863.38;4919162;28;20039;-69
2021/04/10 08:12:33;;;;;;;6.78;2.53;;;18.10;31.40;;;15.89;37.16;95858.88;4936848;28;20039;-70
2021/04/10 08:14:59;;;;;;;5.45;1.98;;;18.30;30.70;;;16.18;37.65;95857.19;4933156;28;20043;-70
2021/04/10 08:17:50;;;;;;;12.75;4.05;;;18.40;30.20;;;16.54;35.22;95868.63;4948526;28;20032;-65
2021/04/10 08:20:23;;;;;;;17.25;4.88;;;18.80;30.20;;;16.84;35.03;95866.66;4950407;28;20035;-67
2021/04/10 08:22:50;;;;;;;7.57;1.92;;;19.10;30.30;;;17.23;35.80;95858.13;4979241;28;20043;-67
2021/04/10 08:25:32;;;;;;;4.65;1.45;;;19.20;29.20;;;17.57;34.05;95870.47;4935716;28;20051;-67
2021/04/10 08:27:58;;;;;;;4.10;1.65;;;19.50;28.90;;;17.85;35.96;95880.31;4920473;28;20027;-68
2021/04/10 08:30:25;;;;;;;7.80;1.70;;;19.80;28.80;;;17.99;34.80;95872.81;4925874;28;20637;-68
2021/04/10 08:32:51;;;;;;;3.45;1.45;;;20.00;28.70;;;18.33;34.63;95879.78;4938938;28;20039;-68
2021/04/10 08:35:17;;;;;;;6.28;1.88;;;20.40;28.10;;;18.62;34.67;95871.69;4944248;28;20391;-68
2021/04/10 08:37:43;;;;;;;6.78;1.75;;;20.70;27.90;;;18.90;34.19;95878.75;4941239;28;20399;-68
2021/04/10 08:40:10;;;;;;;5.00;1.90;;;21.00;28.00;;;19.22;33.37;95873.53;4958579;28;20463;-68
2021/04/10 08:42:38;;;;;;;437.17;25.50;;;21.30;27.10;;;19.44;33.39;95885.00;4931952;29;20039;-67
2021/04/10 08:45:04;;;;;;;3.35;1.63;;;21.30;26.30;;;19.75;32.73;95877.38;4917452;28;20133;-67
2021/04/10 08:47:30;;;;;;;5.20;1.75;;;21.60;26.30;;;19.98;32.47;95884.28;4931100;28;20134;-65
2021/04/10 08:49:56;;;;;;;5.28;1.52;;;21.70;26.90;;;20.09;31.29;95886.75;4935872;28;20118;-64
2021/04/10 08:52:24;;;;;;;3.55;1.70;;;21.70;26.30;;;20.12;31.21;95883.59;4923429;29;20084;-65
2021/04/10 08:54:51;;;;;;;3.75;1.70;;;22.00;26.30;;;20.16;31.91;95875.91;4932926;29;20032;-64
2021/04/10 08:57:17;;;;;;;4.53;1.65;;;21.90;26.70;;;20.29;30.66;95878.13;4949082;28;20039;-68
2021/04/10 08:59:47;;;;;;;3.63;1.40;;;22.00;25.60;;;20.33;30.40;95875.75;4936089;28;20031;-66
2021/04/10 09:02:19;;;;;;;7.60;1.73;;;22.10;26.70;;;20.30;30.22;95881.59;4950715;28;20375;-66
2021/04/10 09:05:01;;;;;;;4.47;1.67;;;22.40;26.20;;;20.52;31.36;95876.97;4920341;29;20526;-67
2021/04/10 09:07:49;;;;;;;5.07;1.60;;;22.90;26.20;;;20.74;29.74;95877.66;4945179;28;20093;-67
2021/04/10 09:10:24;;;;;;;5.97;1.83;;;22.80;25.10;;;20.61;28.69;95875.47;4965575;28;20038;-67
2021/04/10 09:13:00;;;;;;;7.53;1.63;;;22.10;25.20;;;20.62;30.26;95871.72;4951464;28;20063;-67
2021/04/10 09:15:26;;;;;;;4.65;1.70;;;22.20;25.70;;;20.79;30.77;95879.56;4948839;28;20501;-66
2021/04/10 09:18:00;;;;;;;13.90;6.07;;;22.60;25.20;;;20.78;29.61;95873.41;4925888;28;20118;-65
2021/04/10 09:20:48;;;;;;;3.00;1.90;;;22.90;25.60;;;21.00;29.53;95875.13;4919353;28;20038;-66
2021/04/10 09:23:33;;;;;;;4.60;2.03;;;23.30;25.30;;;21.43;29.23;95874.00;4967649;28;20117;-66
2021/04/10 09:26:10;;;;;;;7.13;3.17;;;24.10;24.80;;;21.80;29.14;95889.09;4932896;28;20596;-66
2021/04/10 09:28:56;;;;;;;4.15;2.90;;;24.30;24.10;;;21.94;29.61;95882.94;4931753;28;20134;-67
2021/04/10 09:31:36;;;;;;;5.70;2.50;;;24.10;24.50;;;22.01;28.27;95880.84;4953355;28;20038;-69
2021/04/10 09:34:02;;;;;;;3.05;1.70;;;24.30;24.30;;;21.97;29.06;95885.13;4951931;28;20053;-66
2021/04/10 09:36:49;;;;;;;4.78;2.67;;;23.50;24.60;;;22.09;28.46;95882.22;4917358;28;20043;-66
2021/04/10 09:39:57;;;;;;;5.22;2.50;;;24.30;24.50;;;22.23;27.24;95877.13;4950485;28;20038;-66
2021/04/10 09:45:27;;;;;;;5.18;1.73;;;23.30;25.20;;;21.51;28.09;95886.91;4967569;28;20038;-66
2021/04/10 09:48:01;;;;;;;5.93;1.80;;;22.80;25.20;;;21.32;28.61;95891.91;4951580;28;20039;-66
2021/04/10 09:50:37;;;;;;;7.00;2.45;;;22.60;25.60;;;20.90;28.80;95894.59;4947707;28;20322;-66
2021/04/10 09:53:05;;;;;;;3.33;1.40;;;21.90;26.30;;;20.55;28.47;95889.03;4934294;28;20042;-65
2021/04/10 09:55:36;;;;;;;4.50;1.40;;;21.60;26.80;;;20.26;29.77;95885.84;4931894;28;20111;-65
2021/04/10 09:58:07;;;;;;;3.53;1.30;;;21.50;27.10;;;19.96;30.04;95892.53;4929526;28;20035;-66
2021/04/10 10:00:47;;;;;;;4.90;1.38;;;21.10;27.60;;;19.60;29.85;95898.56;4947929;28;20133;-66
2021/04/10 10:03:15;;;;;;;6.32;2.63;;;20.60;28.50;;;19.35;30.47;95880.38;4942994;28;20118;-66
2021/04/10 10:05:42;;;;;;;8.07;3.17;;;20.60;28.80;;;19.21;30.71;95885.28;4949640;28;20045;-70
2021/04/10 10:08:10;;;;;;;4.05;1.60;;;20.60;28.80;;;19.08;30.89;95881.13;4942039;28;20035;-66
2021/04/10 10:10:45;;;;;;;4.35;1.73;;;20.50;28.40;;;18.95;31.35;95884.94;4949697;28;20290;-67
2021/04/10 10:13:23;;;;;;;4.97;1.77;;;20.50;29.00;;;18.86;30.90;95875.78;4947643;28;20161;-66
2021/04/10 10:15:51;;;;;;;5.90;1.55;;;20.60;28.90;;;18.62;31.15;95872.53;4935341;28;20550;-67
2021/04/10 10:18:32;;;;;;;4.80;1.77;;;20.10;29.40;;;18.47;30.85;95868.78;4926858;28;20043;-71
2021/04/10 10:21:11;;;;;;;;;;;19.80;29.40;;;18.34;32.06;95868.09;4940518;28;20042;-67
2021/04/10 10:23:57;;;;;;;319.00;25.83;;;20.10;29.50;;;18.31;32.22;95868.53;4965070;28;19967;-68
2021/04/10 10:26:28;;;;;;;39.85;4.88;;;20.10;30.00;;;18.30;31.67;95868.78;4933882;28;20049;-69
2021/04/10 10:29:03;;;;;;;50.28;8.93;;;20.20;29.60;;;18.45;32.46;95860.25;4934043;28;20027;-67
2021/04/10 10:31:31;;;;;;;8.35;2.22;;;20.70;29.20;;;18.65;32.09;95860.56;4940845;28;20521;-68
2021/04/10 10:34:09;;;;;;;5.30;1.70;;;20.90;28.90;;;18.83;31.03;95851.47;4934392;28;20038;-69
2021/04/10 10:36:37;;;;;;;141.90;16.35;;;20.90;27.30;;;18.87;31.39;95856.06;4934836;28;20046;-68
2021/04/10 10:39:08;;;;;;;104.13;12.55;;;21.10;28.50;;;19.02;31.80;95844.81;4937904;28;20047;-68
2021/04/10 10:41:43;;;;;;;227.48;21.70;;;21.70;27.90;;;19.42;31.85;95852.44;4953608;28;20050;-67